Flight Track Log - Related Links

Times and Time Zones

All times are in EDT time to prevent confusion due to time zone crossing. See the IFL511 flight status page for this flight to view local times or setup timezone preferences in your user account.

Time Position Orientation Groundspeed Altitude Reporting Facility
EDT Latitude Longitude Course Direction KTS MPH feet Rate Location/Type
Fri 07:58:50 AM 42.6653 -83.4014 79° East 195 224 1,600  Level Cleveland Center
Fri 07:59:32 AM 42.6731 -83.3481 79° East 189 217 3,300 2,415 Climbing Cleveland Center
Fri 08:00:12 AM 42.6761 -83.2972 85° East 200 230 4,900 2,400 Climbing Cleveland Center
Fri 08:01:12 AM 42.6886 -83.2103 79° East 237 273 7,300 2,700 Climbing Cleveland Center
Fri 08:02:12 AM 42.6542 -83.1664 137° Southeast 186 214 10,300 2,600 Climbing Cleveland Center
Fri 08:03:12 AM 42.5889 -83.1947 198° South 157 181 12,500 1,950 Climbing Cleveland Center
Fri 08:04:12 AM 42.5194 -83.2256 198° South 212 244 14,200 1,750 Climbing Cleveland Center
Fri 08:05:12 AM 42.4394 -83.2589 197° South 263 303 16,000 1,650 Climbing Cleveland Center
Fri 08:06:12 AM 42.3658 -83.2894 197° South 305 351 17,500 1,750 Climbing Cleveland Center
Fri 08:07:12 AM 42.2817 -83.3253 197° South 322 371 19,500 1,750 Climbing Cleveland Center
Fri 08:08:12 AM 42.2017 -83.3583 197° South 317 365 21,000 800 Climbing Cleveland Center
Fri 08:09:12 AM 42.1025 -83.4014 198° South 341 392 21,100 850 Climbing Cleveland Center
Fri 08:10:12 AM 42.0078 -83.4392 197° South 363 418 22,700 1,733 Climbing Cleveland Center
Fri 08:12:12 AM 41.8181 -83.5172 197° South 360 414 26,300 1,567 Climbing Cleveland Center
Fri 08:13:12 AM 41.7256 -83.5547 197° South 355 409 27,400 1,100 Climbing Cleveland Center
Fri 08:14:12 AM 41.6308 -83.5892 195° South 355 409 28,500 1,050 Climbing Cleveland Center
Fri 08:15:12 AM 41.5300 -83.6178 192° South 361 415 29,500 1,000 Climbing Cleveland Center
Fri 08:16:12 AM 41.4308 -83.6547 196° South 366 421 30,500 1,000 Climbing Cleveland Center
Fri 08:17:12 AM 41.3433 -83.7281 212° Southwest 371 427 31,500 867 Climbing Cleveland Center
Fri 08:19:12 AM 41.1628 -83.8847 213° Southwest 380 437 33,100 696 Climbing Indianapolis Center
Fri 08:20:13 AM 41.0664 -83.9528 208° Southwest 387 445 33,600 492 Climbing Indianapolis Center
Fri 08:21:14 AM 40.9717 -84.0178 207° Southwest 394 453 34,100 537 Climbing Indianapolis Center
Fri 08:22:16 AM 40.8733 -84.0856 208° Southwest 396 456 34,700 537 Climbing Indianapolis Center
Fri 08:23:17 AM 40.7747 -84.1536 208° Southwest 396 456 35,200 492 Climbing Indianapolis Center
Fri 08:24:18 AM 40.6758 -84.2217 208° Southwest 397 457 35,700 390 Climbing Indianapolis Center
Fri 08:25:20 AM 40.5714 -84.2794 203° Southwest 402 463 36,000 146 Climbing Indianapolis Center
Fri 08:26:21 AM 40.4481 -84.3472 203° Southwest 408 470 36,000 -49 Level Indianapolis Center
Fri 08:27:22 AM 40.3394 -84.4064 203° Southwest 418 481 35,900 -49 Descending Indianapolis Center
Fri 08:28:24 AM 40.2292 -84.4667 203° Southwest 425 489 35,900  Level Indianapolis Center
Fri 08:29:25 AM 40.1183 -84.5264 202° Southwest 427 491 35,900  Level Indianapolis Center
Fri 08:30:27 AM 40.0053 -84.5875 202° Southwest 434 499 35,900  Level Indianapolis Center
Fri 08:31:28 AM 39.8942 -84.6467 202° Southwest 433 498 35,900  Level Indianapolis Center
Fri 08:32:29 AM 39.7839 -84.7061 203° Southwest 429 494 35,900  Level Indianapolis Center
Fri 08:33:31 AM 39.6747 -84.7650 203° Southwest 425 489 35,900  Level Indianapolis Center
Fri 08:34:32 AM 39.5633 -84.8239 202° Southwest 427 491 35,900  Level Indianapolis Center
Fri 08:35:33 AM 39.4542 -84.8817 202° Southwest 423 487 35,900  Level Indianapolis Center
Fri 08:36:35 AM 39.3486 -84.9378 202° Southwest 422 486 35,900  Level Indianapolis Center
Fri 08:37:36 AM 39.2192 -85.0058 202° Southwest 417 480 35,900 49 Level Indianapolis Center
Fri 08:38:38 AM 39.1111 -85.0619 202° Southwest 419 482 36,000 49 Climbing Indianapolis Center
Fri 08:39:39 AM 39.0039 -85.1181 202° Southwest 416 479 36,000  Level Indianapolis Center
Fri 08:40:41 AM 38.8969 -85.1750 203° Southwest 416 479 36,000  Level Indianapolis Center
Fri 08:41:42 AM 38.7892 -85.2297 202° Southwest 416 479 36,000  Level Indianapolis Center
Fri 08:42:43 AM 38.6803 -85.2789 199° South 415 478 36,000  Level Indianapolis Center
Fri 08:43:45 AM 38.5603 -85.3117 192° South 415 478 36,000  Level Indianapolis Center
Fri 08:44:46 AM 38.4461 -85.3436 192° South 416 479 36,000  Level Indianapolis Center
Fri 08:45:48 AM 38.3328 -85.3767 193° South 415 478 36,000 -195 Level Indianapolis Center
Fri 08:46:49 AM 38.2186 -85.4086 192° South 416 479 35,600 -488 Descending Indianapolis Center
Fri 08:47:51 AM 38.1003 -85.4414 192° South 427 491 35,000 -341 Descending Indianapolis Center
Fri 08:48:52 AM 37.9831 -85.4750 193° South 430 495 34,900 -976 Descending Indianapolis Center
Fri 08:49:54 AM 37.8625 -85.5089 193° South 433 498 33,000 -1,756 Descending Indianapolis Center
Fri 08:50:55 AM 37.7086 -85.5517 192° South 460 529 31,300 -1,721 Descending Indianapolis Center
Fri 08:51:56 AM 37.5808 -85.5883 193° South 467 537 29,500 -1,756 Descending Indianapolis Center
Fri 08:52:58 AM 37.4508 -85.6225 192° South 473 544 27,700 -2,195 Descending Indianapolis Center
Fri 08:53:59 AM 37.3175 -85.6581 192° South 484 557 25,000 -2,553 Descending Indianapolis Center
Fri 08:54:32 AM 37.2539 -85.6742 191° South 486 559 23,700 -2,581 Descending Memphis Center
Fri 08:55:32 AM 37.1261 -85.7103 193° South 481 554 21,000 -2,450 Descending Memphis Center
Fri 08:56:32 AM 37.0000 -85.7358 189° South 468 539 18,800 -2,000 Descending Memphis Center
Fri 08:57:32 AM 36.8675 -85.7564 187° South 456 525 17,000 -1,900 Descending Memphis Center
Fri 08:58:32 AM 36.7492 -85.7711 186° South 440 506 15,000 -1,900 Descending Memphis Center
Fri 08:59:32 AM 36.6433 -85.7875 187° South 435 501 13,200 -1,750 Descending Memphis Center
Fri 09:00:32 AM 36.5356 -85.8581 208° Southwest 380 437 11,500 -1,100 Descending Memphis Center
Fri 09:01:32 AM 36.4794 -85.9772 240° Southwest 389 448 11,000 -300 Descending Memphis Center
Fri 09:02:32 AM 36.4289 -86.0858 240° Southwest 378 435 10,900 -1,000 Descending Memphis Center
Fri 09:03:32 AM 36.3861 -86.1706 238° Southwest 327 376 9,000 -1,950 Descending Memphis Center
Fri 09:04:32 AM 36.3386 -86.2503 234° Southwest 296 341 7,000 -1,850 Descending Memphis Center
Fri 09:05:32 AM 36.2883 -86.3017 219° Southwest 274 315 5,300 -1,500 Descending Memphis Center
Fri 09:06:32 AM 36.2419 -86.3503 220° Southwest 247 284 4,000 -1,000 Descending Memphis Center
Fri 09:07:32 AM 36.2017 -86.3986 224° Southwest 218 251 3,300 -750 Descending Memphis Center
Fri 09:08:32 AM 36.1594 -86.4444 221° Southwest 213 245 2,500 -400 Descending Memphis Center
Fri 09:09:32 AM 36.1192 -86.4900 222° Southwest 201 231 2,500 -150 Level Memphis Center
Fri 09:10:32 AM 36.0869 -86.5300 225° Southwest 181 208 2,200 -450 Descending Memphis Center
Fri 09:11:32 AM 36.0544 -86.5547 212° Southwest 156 180 1,600 -700 Descending Memphis Center
Fri 09:12:32 AM 36.0247 -86.5381 156° South 124 143 800 -400 Descending Memphis Center
Fri 09:13:32 AM 35.9961 -86.5600 212° Southwest 124 143 800  Level Memphis Center

Login

Don't have an account? Register now (free) for customized features, flight alerts, and more!